createdAt,value
2023-03-18T00:01:11.374Z,53.90
2023-03-18T00:03:39.526Z,53.67
2023-03-18T00:06:10.400Z,53.66
2023-03-18T00:08:41.070Z,54.02
2023-03-18T00:11:11.088Z,54.07
2023-03-18T00:13:39.539Z,54.23
2023-03-18T00:16:08.991Z,54.54
2023-03-18T00:18:36.936Z,54.68
2023-03-18T00:21:06.102Z,54.88
2023-03-18T00:23:35.046Z,54.85
2023-03-18T00:26:04.944Z,54.93
2023-03-18T00:28:33.029Z,54.97
2023-03-18T00:31:08.834Z,55.58
2023-03-18T00:33:38.166Z,55.37
2023-03-18T00:36:10.050Z,55.50
2023-03-18T00:38:38.540Z,55.57
2023-03-18T00:41:12.289Z,55.74
2023-03-18T00:43:47.298Z,56.13
2023-03-18T00:46:17.865Z,56.28
2023-03-18T00:48:46.769Z,56.86
2023-03-18T00:51:17.339Z,56.90
2023-03-18T00:53:48.592Z,56.83
2023-03-18T00:56:19.533Z,56.79
2023-03-18T00:58:48.002Z,56.94
2023-03-18T01:01:17.651Z,56.83
2023-03-18T01:03:46.749Z,57.40
2023-03-18T01:06:17.731Z,57.39
2023-03-18T01:08:45.734Z,57.42
2023-03-18T01:11:14.561Z,57.84
2023-03-18T01:13:44.228Z,58.13
2023-03-18T01:16:12.343Z,58.47
2023-03-18T01:18:41.499Z,58.81
2023-03-18T01:21:11.959Z,59.12
2023-03-18T01:23:47.128Z,58.83
2023-03-18T01:26:16.815Z,59.32
2023-03-18T01:28:48.068Z,59.86
2023-03-18T01:31:16.693Z,59.58
2023-03-18T01:33:47.907Z,59.65
2023-03-18T01:36:17.533Z,59.74
2023-03-18T01:38:52.159Z,60.04
2023-03-18T01:41:20.351Z,60.12
2023-03-18T01:43:49.834Z,60.27
2023-03-18T01:46:37.103Z,60.30
2023-03-18T01:49:10.811Z,60.99
2023-03-18T01:51:40.877Z,61.20
2023-03-18T01:54:10.397Z,60.82
2023-03-18T01:56:41.762Z,60.88
2023-03-18T01:59:13.916Z,60.60
2023-03-18T02:01:46.656Z,60.85
2023-03-18T02:04:16.315Z,60.64
2023-03-18T02:06:44.669Z,60.35
2023-03-18T02:09:13.394Z,60.77
2023-03-18T02:11:46.822Z,60.88
2023-03-18T02:14:21.555Z,60.80
2023-03-18T02:16:55.805Z,60.52
2023-03-18T02:19:31.210Z,60.36
2023-03-18T02:22:06.424Z,60.86
2023-03-18T02:24:43.795Z,61.07
2023-03-18T02:27:19.904Z,61.25
2023-03-18T02:29:50.134Z,61.72
2023-03-18T02:32:22.651Z,61.23
2023-03-18T02:34:51.481Z,62.06
2023-03-18T02:37:19.445Z,62.30
2023-03-18T02:39:47.446Z,61.91
2023-03-18T02:42:18.238Z,61.91
2023-03-18T02:44:53.792Z,61.74
2023-03-18T02:47:32.856Z,62.34
2023-03-18T02:50:00.966Z,62.35
2023-03-18T02:52:29.051Z,62.21
2023-03-18T02:54:59.209Z,62.80
2023-03-18T02:57:28.611Z,62.88
2023-03-18T02:59:59.539Z,63.22
2023-03-18T03:02:27.601Z,63.28
2023-03-18T03:04:55.566Z,63.71
2023-03-18T03:07:27.780Z,63.77
2023-03-18T03:09:58.088Z,63.57
2023-03-18T03:12:26.132Z,63.44
2023-03-18T03:14:58.818Z,63.96
2023-03-18T03:17:29.037Z,63.89
2023-03-18T03:19:57.865Z,64.67
2023-03-18T03:22:27.044Z,64.57
2023-03-18T03:24:55.466Z,65.13
2023-03-18T03:27:23.538Z,65.35
2023-03-18T03:29:51.888Z,65.12
2023-03-18T03:32:23.079Z,65.39
2023-03-18T03:34:52.156Z,65.15
2023-03-18T03:37:20.099Z,65.12
2023-03-18T03:39:49.088Z,65.07
2023-03-18T03:42:17.375Z,65.14
2023-03-18T03:44:45.791Z,65.22
2023-03-18T03:47:13.953Z,64.79
2023-03-18T03:49:43.599Z,64.99
2023-03-18T03:52:13.210Z,64.66
2023-03-18T03:54:42.979Z,64.61
2023-03-18T03:57:11.842Z,64.82
2023-03-18T03:59:39.782Z,65.26
2023-03-18T04:02:15.966Z,65.57
2023-03-18T04:04:46.306Z,65.88
2023-03-18T04:07:24.181Z,65.37
2023-03-18T04:09:52.520Z,65.73
2023-03-18T04:12:21.143Z,66.31
2023-03-18T04:14:56.703Z,66.52
2023-03-18T04:17:25.558Z,66.86
2023-03-18T04:19:55.544Z,66.96
2023-03-18T04:22:29.629Z,66.67
2023-03-18T04:24:58.496Z,66.89
2023-03-18T04:27:26.693Z,67.49
2023-03-18T04:29:55.258Z,67.08
2023-03-18T04:32:28.940Z,66.74
2023-03-18T04:34:58.789Z,67.07
2023-03-18T04:37:27.036Z,67.08
2023-03-18T04:39:58.432Z,67.65
2023-03-18T04:42:26.802Z,68.15
2023-03-18T04:44:54.837Z,68.03
2023-03-18T04:47:23.864Z,67.99
2023-03-18T04:49:53.501Z,67.72
2023-03-18T04:52:23.009Z,67.87
2023-03-18T04:54:51.250Z,67.92
2023-03-18T04:57:19.819Z,68.77
2023-03-18T04:59:52.717Z,68.92
2023-03-18T05:02:21.129Z,69.13
2023-03-18T05:04:49.780Z,69.71
2023-03-18T05:07:18.519Z,69.47
2023-03-18T05:09:58.034Z,69.56
2023-03-18T05:12:26.597Z,69.29
2023-03-18T05:14:54.901Z,69.21
2023-03-18T05:17:25.835Z,68.99
2023-03-18T05:19:58.702Z,69.11
2023-03-18T05:22:27.541Z,69.79
2023-03-18T05:25:11.097Z,69.40
2023-03-18T05:27:41.803Z,69.23
2023-03-18T05:30:31.987Z,69.08
2023-03-18T05:33:00.697Z,69.14
2023-03-18T05:35:43.414Z,68.85
2023-03-18T05:38:11.623Z,69.64
2023-03-18T05:40:41.296Z,69.76
2023-03-18T05:43:18.050Z,69.35
2023-03-18T05:45:52.055Z,70.03
2023-03-18T05:48:24.838Z,70.20
2023-03-18T05:50:58.743Z,70.79
2023-03-18T05:53:28.674Z,71.05
2023-03-18T05:56:08.293Z,71.22
2023-03-18T05:58:36.283Z,71.31
2023-03-18T06:01:26.116Z,71.64
2023-03-18T06:03:55.587Z,71.47
2023-03-18T06:06:23.699Z,72.09
2023-03-18T06:08:52.690Z,72.25
2023-03-18T06:11:22.221Z,71.98
2023-03-18T06:13:52.237Z,72.67
2023-03-18T06:16:20.467Z,72.79
2023-03-18T06:18:49.040Z,73.47
2023-03-18T06:21:17.254Z,73.17
2023-03-18T06:23:45.568Z,73.03
2023-03-18T06:26:14.152Z,72.97
2023-03-18T06:28:49.786Z,72.73
2023-03-18T06:31:19.943Z,72.58
2023-03-18T06:33:49.511Z,72.90
2023-03-18T06:36:19.332Z,72.83
2023-03-18T06:38:50.036Z,73.26
2023-03-18T06:41:19.116Z,73.05
2023-03-18T06:44:01.214Z,72.74
2023-03-18T06:46:31.250Z,73.00
2023-03-18T06:49:00.417Z,72.67
2023-03-18T06:51:33.733Z,72.63
2023-03-18T06:54:02.521Z,73.21
2023-03-18T06:56:33.874Z,73.35
2023-03-18T06:59:13.107Z,73.22
2023-03-18T07:01:41.385Z,73.35
2023-03-18T07:04:09.448Z,72.77
2023-03-18T07:06:38.035Z,72.77
2023-03-18T07:09:06.662Z,72.92
2023-03-18T07:11:34.584Z,73.39
2023-03-18T07:14:08.434Z,73.44
2023-03-18T07:16:39.038Z,73.54
2023-03-18T07:19:07.330Z,72.76
2023-03-18T07:21:35.987Z,72.94
2023-03-18T07:24:05.719Z,72.67
2023-03-18T07:26:33.636Z,73.02
2023-03-18T07:29:01.854Z,73.16
2023-03-18T07:31:30.863Z,72.42
2023-03-18T07:34:00.385Z,73.35
2023-03-18T07:36:28.838Z,72.87
2023-03-18T07:38:56.823Z,72.63
2023-03-18T07:41:26.059Z,72.88
2023-03-18T07:43:55.431Z,72.43
2023-03-18T07:46:23.980Z,72.24
2023-03-18T07:48:51.966Z,72.41
2023-03-18T07:51:21.722Z,72.60
2023-03-18T07:53:50.649Z,72.32
2023-03-18T07:56:18.989Z,72.34
2023-03-18T07:58:48.268Z,71.84
2023-03-18T08:01:18.408Z,71.59
2023-03-18T08:03:47.488Z,71.31
2023-03-18T08:06:18.115Z,70.89
2023-03-18T08:08:49.344Z,70.87
2023-03-18T08:11:17.557Z,71.16
2023-03-18T08:13:45.850Z,71.24
2023-03-18T08:16:13.858Z,71.11
2023-03-18T08:18:42.108Z,70.50
2023-03-18T08:21:10.727Z,70.58
2023-03-18T08:23:39.262Z,70.30
2023-03-18T08:26:09.433Z,70.28
2023-03-18T08:28:37.650Z,70.70
2023-03-18T08:31:06.953Z,70.57
2023-03-18T08:33:35.333Z,70.40
2023-03-18T08:36:04.082Z,70.44
2023-03-18T08:38:33.030Z,69.96
2023-03-18T08:41:02.446Z,69.99
2023-03-18T08:43:32.862Z,70.07
2023-03-18T08:46:02.613Z,69.95
2023-03-18T08:48:32.577Z,69.55
2023-03-18T08:51:01.553Z,69.53
2023-03-18T08:53:30.126Z,69.29
2023-03-18T08:55:58.263Z,69.79
2023-03-18T08:58:27.544Z,69.43
2023-03-18T09:00:57.690Z,69.25
2023-03-18T09:03:25.791Z,68.98
2023-03-18T09:05:55.649Z,69.12
2023-03-18T09:08:23.701Z,69.00
2023-03-18T09:10:53.943Z,69.23
2023-03-18T09:13:24.307Z,69.63
2023-03-18T09:15:53.222Z,69.36
2023-03-18T09:18:25.247Z,69.16
2023-03-18T09:20:54.825Z,68.59
2023-03-18T09:23:23.590Z,68.92
2023-03-18T09:25:51.751Z,68.40
2023-03-18T09:28:19.860Z,68.58
2023-03-18T09:30:48.815Z,68.33
2023-03-18T09:33:18.001Z,68.21
2023-03-18T09:35:49.015Z,68.88
2023-03-18T09:38:19.692Z,68.42
2023-03-18T09:40:56.577Z,68.70
2023-03-18T09:43:40.344Z,68.35
2023-03-18T09:46:12.084Z,67.88
2023-03-18T09:49:17.972Z,68.60
2023-03-18T09:51:58.999Z,68.95
2023-03-18T09:54:39.056Z,69.51
2023-03-18T09:57:14.339Z,70.16
2023-03-18T09:59:49.062Z,69.67
2023-03-18T10:02:24.754Z,70.01
2023-03-18T10:04:57.625Z,69.61
2023-03-18T10:07:32.716Z,69.09
2023-03-18T10:10:05.052Z,68.84
2023-03-18T10:12:36.453Z,68.64
2023-03-18T10:15:13.887Z,68.41
2023-03-18T10:17:45.486Z,68.37
2023-03-18T10:20:21.677Z,68.58
2023-03-18T10:23:21.459Z,67.90
2023-03-18T10:25:53.586Z,68.21
2023-03-18T10:28:42.574Z,67.94
2023-03-18T10:31:29.670Z,66.98
2023-03-18T10:34:00.086Z,67.09
2023-03-18T10:36:32.979Z,67.30
2023-03-18T10:39:03.802Z,66.88
2023-03-18T10:41:35.380Z,67.45
2023-03-18T10:44:08.423Z,66.92
2023-03-18T10:46:37.668Z,66.44
2023-03-18T10:49:13.733Z,66.36
2023-03-18T10:51:48.035Z,66.11
2023-03-18T10:54:24.430Z,65.43
2023-03-18T10:56:53.408Z,64.98
2023-03-18T10:59:24.719Z,65.44
2023-03-18T11:01:58.719Z,65.42
2023-03-18T11:04:30.672Z,65.47
2023-03-18T11:07:02.899Z,65.30
2023-03-18T11:09:36.253Z,65.06
2023-03-18T11:12:06.757Z,65.26
2023-03-18T11:14:37.560Z,64.75
2023-03-18T11:17:08.122Z,65.09
2023-03-18T11:19:39.818Z,64.17
2023-03-18T11:22:20.707Z,64.54
2023-03-18T11:25:02.432Z,64.12
2023-03-18T11:27:38.875Z,62.84
2023-03-18T11:30:31.067Z,62.58
2023-03-18T11:33:07.231Z,61.51
2023-03-18T11:35:42.011Z,61.16
2023-03-18T11:38:16.670Z,61.11
2023-03-18T11:40:46.377Z,59.50
2023-03-18T11:43:19.913Z,60.29
2023-03-18T11:45:51.383Z,59.39
2023-03-18T11:48:31.574Z,59.83
2023-03-18T11:51:12.082Z,59.29
2023-03-18T11:53:56.710Z,60.09
2023-03-18T11:56:34.998Z,60.34
2023-03-18T11:59:36.085Z,60.42
2023-03-18T12:02:32.192Z,59.61
2023-03-18T12:05:22.834Z,60.60
2023-03-18T12:08:01.470Z,59.86
2023-03-18T12:10:36.210Z,58.77
2023-03-18T12:13:21.001Z,59.51
2023-03-18T12:15:58.297Z,60.38
2023-03-18T12:18:45.385Z,58.38
2023-03-18T12:21:31.025Z,58.74
2023-03-18T12:24:20.597Z,58.69
2023-03-18T12:26:55.761Z,57.78
2023-03-18T12:29:50.335Z,57.82
2023-03-18T12:32:27.447Z,57.46
2023-03-18T12:35:22.880Z,57.44
2023-03-18T12:38:11.531Z,56.73
2023-03-18T12:40:48.870Z,57.30
2023-03-18T12:43:30.349Z,58.09
2023-03-18T12:46:05.391Z,56.17
2023-03-18T12:48:44.357Z,55.63
2023-03-18T12:51:18.242Z,56.08
2023-03-18T12:53:47.736Z,55.79
2023-03-18T12:56:20.060Z,56.22
2023-03-18T12:58:52.277Z,55.27
2023-03-18T13:01:28.068Z,54.06
2023-03-18T13:04:01.500Z,53.91
2023-03-18T13:06:35.499Z,52.84
2023-03-18T13:09:08.547Z,53.06
2023-03-18T13:11:59.002Z,52.41
2023-03-18T13:14:32.679Z,51.95
2023-03-18T13:17:03.043Z,52.23
2023-03-18T13:19:31.991Z,52.08
2023-03-18T13:22:13.642Z,52.44
2023-03-18T13:24:53.930Z,52.58
2023-03-18T13:27:45.110Z,52.18
2023-03-18T13:30:24.106Z,51.54
2023-03-18T13:33:10.138Z,51.72
2023-03-18T13:35:58.642Z,51.91
2023-03-18T13:38:55.480Z,51.41
2023-03-18T13:41:38.493Z,51.35
2023-03-18T13:44:13.312Z,51.48
2023-03-18T13:46:43.615Z,51.59
2023-03-18T13:49:21.844Z,51.68
2023-03-18T13:51:53.985Z,51.64
2023-03-18T13:54:22.236Z,51.86
2023-03-18T13:56:55.736Z,51.58
2023-03-18T13:59:42.292Z,51.04
2023-03-18T14:02:32.699Z,51.74
2023-03-18T14:05:02.810Z,52.06
2023-03-18T14:07:31.907Z,52.08
2023-03-18T14:10:20.570Z,50.94
2023-03-18T14:12:49.441Z,50.75
2023-03-18T14:15:38.475Z,50.91
2023-03-18T14:18:20.355Z,50.47
2023-03-18T14:20:54.541Z,50.28
2023-03-18T14:23:35.575Z,50.95
2023-03-18T14:26:07.767Z,50.54
2023-03-18T14:28:46.593Z,50.67
2023-03-18T14:31:20.805Z,50.71
2023-03-18T14:33:52.364Z,50.99
2023-03-18T14:36:27.924Z,50.70
2023-03-18T14:39:00.352Z,51.04
2023-03-18T14:41:29.418Z,50.69
2023-03-18T14:44:08.938Z,51.30
2023-03-18T14:46:42.987Z,51.26
2023-03-18T14:49:43.056Z,51.43
2023-03-18T14:52:23.137Z,51.05
2023-03-18T14:54:53.437Z,51.66
2023-03-18T14:57:23.535Z,51.53
2023-03-18T14:59:51.775Z,51.54
2023-03-18T15:02:25.982Z,51.74
2023-03-18T15:04:56.631Z,52.36
2023-03-18T15:07:35.795Z,52.98
2023-03-18T15:10:14.361Z,52.58
2023-03-18T15:12:42.767Z,51.86
2023-03-18T15:15:15.423Z,52.41
2023-03-18T15:17:46.906Z,52.14
2023-03-18T15:20:15.627Z,52.12
2023-03-18T15:22:45.014Z,51.95
2023-03-18T15:25:17.821Z,52.25
2023-03-18T15:27:46.642Z,51.81
2023-03-18T15:30:24.655Z,52.25
2023-03-18T15:32:56.614Z,51.96
2023-03-18T15:35:26.497Z,51.96
2023-03-18T15:38:05.592Z,52.26
2023-03-18T15:40:36.365Z,51.81
2023-03-18T15:43:06.334Z,51.57
2023-03-18T15:45:35.660Z,51.42
2023-03-18T15:48:08.053Z,51.91
2023-03-18T15:50:37.195Z,52.36
2023-03-18T15:53:08.349Z,51.93
2023-03-18T15:55:47.269Z,52.45
2023-03-18T15:58:20.639Z,53.85
2023-03-18T16:00:48.589Z,54.96
2023-03-18T16:03:18.621Z,54.80
2023-03-18T16:05:46.902Z,54.92
2023-03-18T16:08:16.851Z,55.60
2023-03-18T16:10:45.050Z,55.68
2023-03-18T16:13:18.262Z,56.02
2023-03-18T16:15:46.386Z,56.44
2023-03-18T16:18:14.142Z,56.37
2023-03-18T16:20:46.752Z,56.75
2023-03-18T16:23:17.485Z,56.99
2023-03-18T16:25:45.713Z,56.90
2023-03-18T16:28:18.673Z,56.58
2023-03-18T16:30:46.580Z,56.58
2023-03-18T16:33:14.897Z,58.11
2023-03-18T16:35:43.723Z,59.62
2023-03-18T16:38:17.469Z,60.04
2023-03-18T16:40:46.682Z,60.22
2023-03-18T16:43:17.152Z,59.97
2023-03-18T16:45:45.354Z,60.16
2023-03-18T16:48:15.273Z,60.22
2023-03-18T16:50:45.087Z,58.97
2023-03-18T16:53:17.233Z,58.87
2023-03-18T16:55:47.166Z,60.34
2023-03-18T16:58:17.732Z,60.20
2023-03-18T17:00:48.321Z,60.26
2023-03-18T17:03:18.364Z,60.67
2023-03-18T17:05:47.340Z,60.49
2023-03-18T17:08:15.555Z,60.32
2023-03-18T17:10:44.187Z,59.55
2023-03-18T17:13:18.697Z,59.94
2023-03-18T17:15:46.527Z,60.39
2023-03-18T17:18:15.697Z,60.20
2023-03-18T17:20:44.018Z,60.13
2023-03-18T17:23:19.113Z,59.93
2023-03-18T17:25:49.539Z,59.96
2023-03-18T17:28:23.121Z,59.18
2023-03-18T17:30:51.352Z,59.43
2023-03-18T17:33:21.933Z,59.55
2023-03-18T17:35:49.744Z,59.19
2023-03-18T17:38:17.921Z,59.38
2023-03-18T17:40:47.667Z,59.66
2023-03-18T17:43:18.702Z,60.53
2023-03-18T17:45:48.355Z,60.54
2023-03-18T17:48:17.965Z,60.80
2023-03-18T17:50:46.464Z,60.62
2023-03-18T17:53:23.086Z,60.87
2023-03-18T17:55:51.677Z,61.20
2023-03-18T17:58:20.053Z,61.57
2023-03-18T18:00:49.476Z,62.17
2023-03-18T18:03:20.686Z,62.08
2023-03-18T18:05:48.468Z,61.74
2023-03-18T18:08:17.786Z,61.47
2023-03-18T18:10:45.629Z,61.58
2023-03-18T18:13:17.055Z,60.99
2023-03-18T18:15:46.000Z,61.14
2023-03-18T18:18:23.176Z,60.98
2023-03-18T18:20:53.720Z,60.77
2023-03-18T18:23:30.002Z,60.30
2023-03-18T18:25:59.784Z,59.96
2023-03-18T18:28:30.398Z,59.32
2023-03-18T18:30:58.587Z,59.43
2023-03-18T18:33:28.174Z,59.42
2023-03-18T18:35:56.913Z,59.76
2023-03-18T18:38:25.658Z,59.18
2023-03-18T18:40:54.271Z,59.25
2023-03-18T18:43:22.835Z,59.65
2023-03-18T18:45:51.486Z,59.94
2023-03-18T18:48:20.355Z,59.95
2023-03-18T18:50:49.995Z,59.75
2023-03-18T18:53:21.651Z,59.86
2023-03-18T18:55:49.560Z,59.58
2023-03-18T18:58:18.682Z,59.62
2023-03-18T19:00:48.634Z,59.90
2023-03-18T19:03:17.504Z,59.94
2023-03-18T19:05:45.905Z,59.84
2023-03-18T19:08:25.536Z,59.95
2023-03-18T19:10:57.374Z,59.86
2023-03-18T19:13:25.121Z,59.80
2023-03-18T19:15:54.022Z,59.95
2023-03-18T19:18:23.506Z,59.94
2023-03-18T19:20:52.004Z,59.79
2023-03-18T19:23:21.958Z,59.78
2023-03-18T19:25:52.114Z,59.68
2023-03-18T19:28:21.993Z,59.83
2023-03-18T19:30:49.941Z,59.73
2023-03-18T19:33:18.164Z,59.73
2023-03-18T19:35:46.457Z,59.96
2023-03-18T19:38:17.034Z,59.80
2023-03-18T19:40:44.839Z,59.48
2023-03-18T19:43:17.703Z,59.64
2023-03-18T19:45:46.126Z,59.54
2023-03-18T19:48:16.427Z,58.85
2023-03-18T19:50:44.159Z,59.44
2023-03-18T19:53:12.937Z,59.38
2023-03-18T19:55:41.439Z,59.39
2023-03-18T19:58:13.091Z,59.71
2023-03-18T20:00:42.924Z,59.90
2023-03-18T20:03:13.942Z,60.04
2023-03-18T20:05:41.715Z,60.30
2023-03-18T20:08:09.480Z,59.93
2023-03-18T20:10:37.475Z,59.98
2023-03-18T20:13:05.435Z,60.13
2023-03-18T20:15:33.700Z,60.36
2023-03-18T20:18:02.997Z,60.14
2023-03-18T20:20:32.220Z,60.40
2023-03-18T20:23:01.888Z,60.48
2023-03-18T20:25:32.420Z,60.80
2023-03-18T20:28:01.157Z,61.06
2023-03-18T20:30:30.105Z,60.75
2023-03-18T20:32:58.359Z,61.02
2023-03-18T20:35:29.366Z,61.56
2023-03-18T20:37:58.114Z,61.04
2023-03-18T20:40:26.620Z,61.82
2023-03-18T20:42:54.679Z,61.66
2023-03-18T20:45:23.339Z,62.16
2023-03-18T20:47:51.340Z,62.24
2023-03-18T20:50:20.594Z,62.24
2023-03-18T20:52:50.848Z,62.50
2023-03-18T20:55:23.819Z,62.25
2023-03-18T20:57:52.170Z,62.27
2023-03-18T21:00:21.450Z,62.29
2023-03-18T21:02:49.225Z,62.52
2023-03-18T21:05:16.985Z,62.85
2023-03-18T21:07:45.010Z,62.89
2023-03-18T21:10:17.950Z,63.00
2023-03-18T21:12:45.755Z,62.80
2023-03-18T21:15:17.916Z,63.34
2023-03-18T21:17:46.412Z,62.85
2023-03-18T21:20:22.085Z,63.41
2023-03-18T21:22:51.495Z,63.36
2023-03-18T21:25:22.815Z,63.35
2023-03-18T21:27:51.537Z,63.29
2023-03-18T21:30:21.661Z,63.62
2023-03-18T21:32:50.461Z,63.38
2023-03-18T21:35:23.962Z,63.06
2023-03-18T21:37:52.226Z,63.39
2023-03-18T21:40:23.098Z,63.65
2023-03-18T21:42:51.506Z,63.75
2023-03-18T21:45:20.431Z,63.63
2023-03-18T21:47:48.245Z,63.85
2023-03-18T21:50:23.899Z,63.54
2023-03-18T21:52:52.913Z,63.30
2023-03-18T21:55:22.719Z,63.59
2023-03-18T21:57:50.488Z,63.67
2023-03-18T22:00:20.379Z,63.92
2023-03-18T22:02:48.289Z,63.85
2023-03-18T22:05:17.612Z,64.15
2023-03-18T22:07:45.932Z,63.75
2023-03-18T22:10:16.087Z,63.88
2023-03-18T22:12:45.160Z,63.35
2023-03-18T22:15:30.227Z,63.36
2023-03-18T22:17:57.870Z,63.60
2023-03-18T22:20:26.011Z,63.50
2023-03-18T22:22:53.919Z,63.44
2023-03-18T22:25:28.151Z,63.27
2023-03-18T22:27:57.252Z,64.07
2023-03-18T22:30:25.298Z,63.31
2023-03-18T22:32:53.701Z,63.74
2023-03-18T22:35:22.503Z,63.85
2023-03-18T22:37:50.705Z,63.54
2023-03-18T22:40:19.533Z,63.37
2023-03-18T22:42:47.482Z,63.52
2023-03-18T22:45:24.001Z,64.37
2023-03-18T22:47:52.168Z,65.19
2023-03-18T22:50:20.467Z,65.41
2023-03-18T22:52:49.341Z,65.81
2023-03-18T22:55:18.680Z,65.95
2023-03-18T22:57:46.461Z,66.32
2023-03-18T23:00:25.931Z,66.83
2023-03-18T23:02:54.432Z,66.66
2023-03-18T23:05:23.388Z,66.69
2023-03-18T23:07:51.575Z,66.86
2023-03-18T23:10:21.085Z,66.65
2023-03-18T23:12:49.036Z,67.00
2023-03-18T23:15:22.329Z,66.85
2023-03-18T23:17:51.644Z,66.69
2023-03-18T23:20:19.571Z,66.41
2023-03-18T23:22:47.345Z,66.60
2023-03-18T23:25:16.472Z,66.79
2023-03-18T23:27:44.648Z,66.87
2023-03-18T23:30:13.649Z,66.81
2023-03-18T23:32:42.063Z,67.02
2023-03-18T23:35:11.513Z,66.81
2023-03-18T23:37:39.798Z,66.57
2023-03-18T23:40:08.620Z,66.33
2023-03-18T23:42:36.620Z,66.13
2023-03-18T23:45:04.969Z,66.47
2023-03-18T23:47:32.704Z,66.16
2023-03-18T23:50:00.331Z,66.40
2023-03-18T23:52:29.383Z,66.32
2023-03-18T23:54:57.042Z,66.15
2023-03-18T23:57:24.710Z,65.87
2023-03-18T23:59:52.620Z,66.18
